Main page
METAR-TAF:

METAR-TAF

Airports :

Turkmenbashi International Airport

Türkmenbaşy, Turkmenistan

latitude: 40-03-48N, longitude: 053-00-26E, elevation: 86 m

Current weather observation

The report was made 1 hour and 11 minutes ago, at 12:00 UTC
Wind 12 kt from the West
Temperature 24°C
Humidity 20%
Pressure 1017 hPa
Visibility 10 km or more
no clouds below 1500 m and no cumulonimbus

METAR: UTAK 201200Z 27012KT CAVOK 24/M00 Q1017 R16R/CLRD70 NOSIG

Time: 18:11 (13:11 UTC)

Forecast

The report was made 2 hours and 41 minutes ago, at 10:30 UTC
Forecast valid from 20 at 12 UTC to 21 at 12 UTC
Wind 16 kt from the North
Visibility 10 km or more
Scattered clouds at a height of 4000 ft
Broken clouds at a height of 10000 ft
Temporary
from 20 at 12 UTC to 20 at 16 UTC
Wind 16 kt from the West

TAF: UTAK 201030Z 2012/2112 35016KT 9999 SCT040 BKN100 TEMPO 2012/2016 27016KT

Weather observations and forecasts of more than 4000 airports (METAR and TAF reports).

The available stations are represented by yellow and red dots on the map.

Hover mouse over dot to see the name of the station.

Then click to see weather observations and forecasts.

To change the map : click on the green buttons with a black cross to zoom in, on the green button with a dash to zoom out, or on the green arrows for adjacent maps.


METAR-TAF: